sensor_id;sensor_type;location;lat;lon;timestamp;P1;durP1;ratioP1;P2;durP2;ratioP2
4939;SDS011;2485;49.326;7.214;2023-03-23T00:00:15;1.50;;;1.40;;
4939;SDS011;2485;49.326;7.214;2023-03-23T00:15:26;2.33;;;1.20;;
4939;SDS011;2485;49.326;7.214;2023-03-23T00:18:02;1.73;;;1.20;;
4939;SDS011;2485;49.326;7.214;2023-03-23T00:27:13;1.30;;;1.20;;
4939;SDS011;2485;49.326;7.214;2023-03-23T00:45:29;2.40;;;1.33;;
4939;SDS011;2485;49.326;7.214;2023-03-23T00:48:19;3.33;;;1.47;;
4939;SDS011;2485;49.326;7.214;2023-03-23T00:50:53;1.30;;;1.20;;
4939;SDS011;2485;49.326;7.214;2023-03-23T01:06:23;1.53;;;1.40;;
4939;SDS011;2485;49.326;7.214;2023-03-23T01:15:22;1.80;;;1.10;;
4939;SDS011;2485;49.326;7.214;2023-03-23T01:18:05;1.97;;;1.27;;
4939;SDS011;2485;49.326;7.214;2023-03-23T01:20:57;1.67;;;1.20;;
4939;SDS011;2485;49.326;7.214;2023-03-23T01:41:52;1.43;;;1.33;;
4939;SDS011;2485;49.326;7.214;2023-03-23T01:50:32;1.50;;;1.17;;
4939;SDS011;2485;49.326;7.214;2023-03-23T01:50:59;1.67;;;1.50;;
4939;SDS011;2485;49.326;7.214;2023-03-23T01:54:31;3.73;;;1.40;;
4939;SDS011;2485;49.326;7.214;2023-03-23T02:00:17;1.73;;;1.57;;
4939;SDS011;2485;49.326;7.214;2023-03-23T02:03:13;1.70;;;1.40;;
4939;SDS011;2485;49.326;7.214;2023-03-23T02:15:09;1.53;;;1.43;;
4939;SDS011;2485;49.326;7.214;2023-03-23T02:17:46;2.07;;;1.80;;
4939;SDS011;2485;49.326;7.214;2023-03-23T02:20:34;1.60;;;1.50;;
4939;SDS011;2485;49.326;7.214;2023-03-23T02:23:37;1.67;;;1.47;;
4939;SDS011;2485;49.326;7.214;2023-03-23T02:35:43;3.77;;;1.50;;
4939;SDS011;2485;49.326;7.214;2023-03-23T02:42:47;2.33;;;1.47;;
4939;SDS011;2485;49.326;7.214;2023-03-23T02:44:28;1.77;;;1.30;;
4939;SDS011;2485;49.326;7.214;2023-03-23T02:47:13;1.50;;;1.40;;
4939;SDS011;2485;49.326;7.214;2023-03-23T02:56:03;2.23;;;1.50;;
4939;SDS011;2485;49.326;7.214;2023-03-23T03:01:48;2.97;;;2.57;;
4939;SDS011;2485;49.326;7.214;2023-03-23T03:08:00;1.83;;;1.30;;
4939;SDS011;2485;49.326;7.214;2023-03-23T03:11:04;2.07;;;1.50;;
4939;SDS011;2485;49.326;7.214;2023-03-23T03:13:55;3.13;;;1.80;;
4939;SDS011;2485;49.326;7.214;2023-03-23T03:16:47;2.20;;;1.70;;
4939;SDS011;2485;49.326;7.214;2023-03-23T03:19:28;3.40;;;1.80;;
4939;SDS011;2485;49.326;7.214;2023-03-23T03:22:30;2.27;;;1.60;;
4939;SDS011;2485;49.326;7.214;2023-03-23T03:25:10;4.03;;;1.60;;
4939;SDS011;2485;49.326;7.214;2023-03-23T03:55:49;4.30;;;1.90;;
4939;SDS011;2485;49.326;7.214;2023-03-23T03:59:15;4.00;;;2.73;;
4939;SDS011;2485;49.326;7.214;2023-03-23T04:01:40;2.00;;;1.80;;
4939;SDS011;2485;49.326;7.214;2023-03-23T04:04:19;2.70;;;1.80;;
4939;SDS011;2485;49.326;7.214;2023-03-23T04:35:27;3.07;;;1.73;;
4939;SDS011;2485;49.326;7.214;2023-03-23T05:18:18;4.80;;;2.77;;
4939;SDS011;2485;49.326;7.214;2023-03-23T05:20:52;3.50;;;2.60;;
4939;SDS011;2485;49.326;7.214;2023-03-23T05:23:24;3.53;;;2.70;;
4939;SDS011;2485;49.326;7.214;2023-03-23T05:25:56;3.00;;;2.10;;
4939;SDS011;2485;49.326;7.214;2023-03-23T06:05:41;4.17;;;2.53;;
4939;SDS011;2485;49.326;7.214;2023-03-23T06:11:36;7.20;;;3.87;;
4939;SDS011;2485;49.326;7.214;2023-03-23T06:16:18;3.83;;;2.50;;
4939;SDS011;2485;49.326;7.214;2023-03-23T06:20:43;4.00;;;2.27;;
4939;SDS011;2485;49.326;7.214;2023-03-23T06:23:22;2.53;;;1.80;;
4939;SDS011;2485;49.326;7.214;2023-03-23T06:29:30;3.53;;;2.30;;
4939;SDS011;2485;49.326;7.214;2023-03-23T06:35:05;2.20;;;2.00;;
4939;SDS011;2485;49.326;7.214;2023-03-23T06:37:41;6.60;;;2.30;;
4939;SDS011;2485;49.326;7.214;2023-03-23T06:40:19;2.53;;;2.03;;
4939;SDS011;2485;49.326;7.214;2023-03-23T06:42:50;2.90;;;2.07;;
4939;SDS011;2485;49.326;7.214;2023-03-23T06:45:29;2.77;;;2.07;;
4939;SDS011;2485;49.326;7.214;2023-03-23T06:47:57;6.50;;;2.13;;
4939;SDS011;2485;49.326;7.214;2023-03-23T06:50:31;3.00;;;1.90;;
4939;SDS011;2485;49.326;7.214;2023-03-23T06:53:09;3.67;;;2.00;;
4939;SDS011;2485;49.326;7.214;2023-03-23T06:58:46;1.80;;;1.70;;
4939;SDS011;2485;49.326;7.214;2023-03-23T07:01:22;3.37;;;2.20;;
4939;SDS011;2485;49.326;7.214;2023-03-23T07:07:12;2.57;;;2.23;;
4939;SDS011;2485;49.326;7.214;2023-03-23T07:10:03;3.27;;;2.10;;
4939;SDS011;2485;49.326;7.214;2023-03-23T07:12:54;3.20;;;2.03;;
4939;SDS011;2485;49.326;7.214;2023-03-23T07:18:57;3.60;;;2.40;;
4939;SDS011;2485;49.326;7.214;2023-03-23T07:21:41;4.07;;;2.20;;
4939;SDS011;2485;49.326;7.214;2023-03-23T07:24:10;4.40;;;2.33;;
4939;SDS011;2485;49.326;7.214;2023-03-23T07:29:30;3.20;;;2.40;;
4939;SDS011;2485;49.326;7.214;2023-03-23T07:32:03;5.97;;;2.87;;
4939;SDS011;2485;49.326;7.214;2023-03-23T07:34:39;3.73;;;2.17;;
4939;SDS011;2485;49.326;7.214;2023-03-23T07:37:26;6.60;;;2.00;;
4939;SDS011;2485;49.326;7.214;2023-03-23T07:39:55;3.57;;;2.50;;
4939;SDS011;2485;49.326;7.214;2023-03-23T07:45:44;2.80;;;2.50;;
4939;SDS011;2485;49.326;7.214;2023-03-23T07:48:28;3.77;;;2.10;;
4939;SDS011;2485;49.326;7.214;2023-03-23T07:51:21;5.33;;;2.00;;
4939;SDS011;2485;49.326;7.214;2023-03-23T07:53:52;3.67;;;2.07;;
4939;SDS011;2485;49.326;7.214;2023-03-23T07:56:22;2.43;;;2.03;;
4939;SDS011;2485;49.326;7.214;2023-03-23T08:01:50;8.63;;;2.10;;
4939;SDS011;2485;49.326;7.214;2023-03-23T08:04:18;3.73;;;2.30;;
4939;SDS011;2485;49.326;7.214;2023-03-23T08:06:47;3.47;;;2.60;;
4939;SDS011;2485;49.326;7.214;2023-03-23T08:09:31;3.00;;;2.23;;
4939;SDS011;2485;49.326;7.214;2023-03-23T08:12:15;5.17;;;3.23;;
4939;SDS011;2485;49.326;7.214;2023-03-23T08:14:46;4.40;;;3.70;;
4939;SDS011;2485;49.326;7.214;2023-03-23T08:17:19;5.23;;;3.60;;
4939;SDS011;2485;49.326;7.214;2023-03-23T08:20:12;5.53;;;3.43;;
4939;SDS011;2485;49.326;7.214;2023-03-23T08:22:44;5.20;;;3.60;;
4939;SDS011;2485;49.326;7.214;2023-03-23T08:28:15;4.50;;;3.93;;
4939;SDS011;2485;49.326;7.214;2023-03-23T08:33:41;6.67;;;4.67;;
4939;SDS011;2485;49.326;7.214;2023-03-23T08:36:13;8.17;;;5.70;;
4939;SDS011;2485;49.326;7.214;2023-03-23T08:38:46;6.73;;;5.67;;
4939;SDS011;2485;49.326;7.214;2023-03-23T08:41:37;8.67;;;5.37;;
4939;SDS011;2485;49.326;7.214;2023-03-23T08:44:24;5.67;;;5.07;;
4939;SDS011;2485;49.326;7.214;2023-03-23T08:47:13;6.03;;;4.73;;
4939;SDS011;2485;49.326;7.214;2023-03-23T08:52:34;6.63;;;3.90;;
4939;SDS011;2485;49.326;7.214;2023-03-23T08:55:16;4.50;;;4.10;;
4939;SDS011;2485;49.326;7.214;2023-03-23T08:57:44;6.50;;;5.03;;
4939;SDS011;2485;49.326;7.214;2023-03-23T09:00:18;4.27;;;3.60;;
4939;SDS011;2485;49.326;7.214;2023-03-23T09:02:46;3.80;;;3.00;;
4939;SDS011;2485;49.326;7.214;2023-03-23T09:05:13;3.90;;;2.37;;
4939;SDS011;2485;49.326;7.214;2023-03-23T09:07:43;5.47;;;2.93;;
4939;SDS011;2485;49.326;7.214;2023-03-23T09:13:38;3.20;;;2.20;;
4939;SDS011;2485;49.326;7.214;2023-03-23T09:19:00;3.50;;;2.53;;
4939;SDS011;2485;49.326;7.214;2023-03-23T09:21:34;3.37;;;2.37;;
4939;SDS011;2485;49.326;7.214;2023-03-23T09:24:07;2.90;;;2.13;;
4939;SDS011;2485;49.326;7.214;2023-03-23T09:26:35;3.00;;;2.20;;
4939;SDS011;2485;49.326;7.214;2023-03-23T09:29:04;3.13;;;2.17;;
4939;SDS011;2485;49.326;7.214;2023-03-23T09:31:37;2.77;;;1.90;;
4939;SDS011;2485;49.326;7.214;2023-03-23T09:34:25;3.53;;;2.00;;
4939;SDS011;2485;49.326;7.214;2023-03-23T09:37:01;2.13;;;1.73;;
4939;SDS011;2485;49.326;7.214;2023-03-23T09:43:04;2.33;;;1.90;;
4939;SDS011;2485;49.326;7.214;2023-03-23T09:46:08;2.00;;;1.50;;
4939;SDS011;2485;49.326;7.214;2023-03-23T09:48:46;1.97;;;1.77;;
4939;SDS011;2485;49.326;7.214;2023-03-23T09:51:38;4.07;;;2.17;;
4939;SDS011;2485;49.326;7.214;2023-03-23T09:54:10;3.23;;;1.90;;
4939;SDS011;2485;49.326;7.214;2023-03-23T09:56:43;2.80;;;2.40;;
4939;SDS011;2485;49.326;7.214;2023-03-23T09:59:22;2.67;;;2.20;;
4939;SDS011;2485;49.326;7.214;2023-03-23T10:01:57;5.53;;;3.00;;
4939;SDS011;2485;49.326;7.214;2023-03-23T10:04:39;4.80;;;2.33;;
4939;SDS011;2485;49.326;7.214;2023-03-23T10:07:20;2.33;;;2.10;;
4939;SDS011;2485;49.326;7.214;2023-03-23T10:10:12;4.23;;;2.70;;
4939;SDS011;2485;49.326;7.214;2023-03-23T10:12:59;4.70;;;2.60;;
4939;SDS011;2485;49.326;7.214;2023-03-23T10:15:35;3.07;;;2.60;;
4939;SDS011;2485;49.326;7.214;2023-03-23T10:18:08;4.40;;;2.77;;
4939;SDS011;2485;49.326;7.214;2023-03-23T10:20:50;3.63;;;2.80;;
4939;SDS011;2485;49.326;7.214;2023-03-23T10:26:53;6.53;;;4.00;;
4939;SDS011;2485;49.326;7.214;2023-03-23T10:29:37;3.30;;;3.00;;
4939;SDS011;2485;49.326;7.214;2023-03-23T10:35:24;3.27;;;2.43;;
4939;SDS011;2485;49.326;7.214;2023-03-23T10:38:10;2.33;;;1.93;;
4939;SDS011;2485;49.326;7.214;2023-03-23T10:40:49;3.40;;;2.23;;
4939;SDS011;2485;49.326;7.214;2023-03-23T10:43:38;2.50;;;2.17;;
4939;SDS011;2485;49.326;7.214;2023-03-23T10:48:54;2.73;;;2.53;;
4939;SDS011;2485;49.326;7.214;2023-03-23T10:51:27;4.50;;;4.07;;
4939;SDS011;2485;49.326;7.214;2023-03-23T10:53:56;4.77;;;3.10;;
4939;SDS011;2485;49.326;7.214;2023-03-23T10:56:34;4.90;;;3.83;;
4939;SDS011;2485;49.326;7.214;2023-03-23T10:59:18;4.83;;;2.70;;
4939;SDS011;2485;49.326;7.214;2023-03-23T11:01:55;2.50;;;2.30;;
4939;SDS011;2485;49.326;7.214;2023-03-23T11:07:37;5.80;;;2.57;;
4939;SDS011;2485;49.326;7.214;2023-03-23T11:10:17;4.27;;;2.17;;
4939;SDS011;2485;49.326;7.214;2023-03-23T11:13:09;2.73;;;1.80;;
4939;SDS011;2485;49.326;7.214;2023-03-23T11:15:57;4.80;;;3.70;;
4939;SDS011;2485;49.326;7.214;2023-03-23T11:18:49;2.67;;;2.40;;
4939;SDS011;2485;49.326;7.214;2023-03-23T11:21:36;5.43;;;2.27;;
4939;SDS011;2485;49.326;7.214;2023-03-23T11:42:12;3.53;;;2.93;;
4939;SDS011;2485;49.326;7.214;2023-03-23T11:44:54;1.50;;;1.40;;
4939;SDS011;2485;49.326;7.214;2023-03-23T11:48:02;2.20;;;1.50;;
4939;SDS011;2485;49.326;7.214;2023-03-23T11:54:09;3.20;;;2.27;;
4939;SDS011;2485;49.326;7.214;2023-03-23T11:56:45;5.90;;;2.17;;
4939;SDS011;2485;49.326;7.214;2023-03-23T12:05:36;3.80;;;2.27;;
4939;SDS011;2485;49.326;7.214;2023-03-23T12:08:27;8.83;;;2.43;;
4939;SDS011;2485;49.326;7.214;2023-03-23T12:11:13;9.50;;;3.83;;
4939;SDS011;2485;49.326;7.214;2023-03-23T12:13:50;2.93;;;1.60;;
4939;SDS011;2485;49.326;7.214;2023-03-23T12:16:36;3.13;;;2.10;;
4939;SDS011;2485;49.326;7.214;2023-03-23T12:19:27;5.00;;;1.80;;
4939;SDS011;2485;49.326;7.214;2023-03-23T12:22:18;1.67;;;1.47;;
4939;SDS011;2485;49.326;7.214;2023-03-23T12:25:06;1.23;;;1.13;;
4939;SDS011;2485;49.326;7.214;2023-03-23T12:27:55;1.50;;;1.03;;
4939;SDS011;2485;49.326;7.214;2023-03-23T12:33:48;2.40;;;1.20;;
4939;SDS011;2485;49.326;7.214;2023-03-23T12:36:44;1.10;;;1.00;;
4939;SDS011;2485;49.326;7.214;2023-03-23T12:48:23;2.90;;;1.20;;
4939;SDS011;2485;49.326;7.214;2023-03-23T12:51:14;1.77;;;1.40;;
4939;SDS011;2485;49.326;7.214;2023-03-23T12:53:53;1.33;;;1.23;;
4939;SDS011;2485;49.326;7.214;2023-03-23T12:56:38;1.60;;;1.40;;
4939;SDS011;2485;49.326;7.214;2023-03-23T12:59:13;3.10;;;1.30;;
4939;SDS011;2485;49.326;7.214;2023-03-23T13:01:50;2.63;;;2.00;;
4939;SDS011;2485;49.326;7.214;2023-03-23T13:07:21;1.90;;;1.40;;
4939;SDS011;2485;49.326;7.214;2023-03-23T13:09:54;1.60;;;1.40;;
4939;SDS011;2485;49.326;7.214;2023-03-23T13:12:26;1.73;;;1.53;;
4939;SDS011;2485;49.326;7.214;2023-03-23T13:14:56;3.10;;;1.57;;
4939;SDS011;2485;49.326;7.214;2023-03-23T13:17:37;2.00;;;1.80;;
4939;SDS011;2485;49.326;7.214;2023-03-23T13:20:17;1.80;;;1.37;;
4939;SDS011;2485;49.326;7.214;2023-03-23T13:22:50;2.43;;;1.30;;
4939;SDS011;2485;49.326;7.214;2023-03-23T13:25:23;2.70;;;1.47;;
4939;SDS011;2485;49.326;7.214;2023-03-23T13:28:16;1.87;;;1.70;;
4939;SDS011;2485;49.326;7.214;2023-03-23T13:31:02;3.00;;;1.90;;
4939;SDS011;2485;49.326;7.214;2023-03-23T13:33:35;3.20;;;1.83;;
4939;SDS011;2485;49.326;7.214;2023-03-23T13:36:09;1.80;;;1.53;;
4939;SDS011;2485;49.326;7.214;2023-03-23T13:38:43;2.10;;;1.37;;
4939;SDS011;2485;49.326;7.214;2023-03-23T13:41:25;1.50;;;1.40;;
4939;SDS011;2485;49.326;7.214;2023-03-23T13:44:14;4.00;;;1.30;;
4939;SDS011;2485;49.326;7.214;2023-03-23T13:47:06;2.80;;;1.10;;
4939;SDS011;2485;49.326;7.214;2023-03-23T13:49:44;2.93;;;2.20;;
4939;SDS011;2485;49.326;7.214;2023-03-23T13:55:46;3.23;;;1.90;;
4939;SDS011;2485;49.326;7.214;2023-03-23T14:01:31;1.47;;;1.30;;
4939;SDS011;2485;49.326;7.214;2023-03-23T14:04:30;3.07;;;1.90;;
4939;SDS011;2485;49.326;7.214;2023-03-23T14:07:18;3.20;;;1.30;;
4939;SDS011;2485;49.326;7.214;2023-03-23T14:10:04;2.07;;;1.40;;
4939;SDS011;2485;49.326;7.214;2023-03-23T14:13:10;2.27;;;1.30;;
4939;SDS011;2485;49.326;7.214;2023-03-23T14:22:19;3.17;;;2.20;;
4939;SDS011;2485;49.326;7.214;2023-03-23T14:25:53;5.40;;;1.80;;
4939;SDS011;2485;49.326;7.214;2023-03-23T14:34:20;1.50;;;1.23;;
4939;SDS011;2485;49.326;7.214;2023-03-23T14:37:44;1.77;;;1.63;;
4939;SDS011;2485;49.326;7.214;2023-03-23T14:40:04;1.90;;;1.67;;
4939;SDS011;2485;49.326;7.214;2023-03-23T14:42:35;1.60;;;1.40;;
4939;SDS011;2485;49.326;7.214;2023-03-23T14:45:10;2.70;;;1.60;;
4939;SDS011;2485;49.326;7.214;2023-03-23T14:47:40;4.50;;;1.77;;
4939;SDS011;2485;49.326;7.214;2023-03-23T14:50:22;1.30;;;1.20;;
4939;SDS011;2485;49.326;7.214;2023-03-23T14:52:55;4.27;;;2.10;;
4939;SDS011;2485;49.326;7.214;2023-03-23T14:55:25;2.80;;;2.07;;
4939;SDS011;2485;49.326;7.214;2023-03-23T14:58:07;1.80;;;1.47;;
4939;SDS011;2485;49.326;7.214;2023-03-23T15:03:48;2.30;;;1.60;;
4939;SDS011;2485;49.326;7.214;2023-03-23T15:06:20;1.67;;;1.40;;
4939;SDS011;2485;49.326;7.214;2023-03-23T15:28:19;1.60;;;1.50;;
4939;SDS011;2485;49.326;7.214;2023-03-23T15:31:27;2.00;;;1.80;;
4939;SDS011;2485;49.326;7.214;2023-03-23T15:34:16;2.83;;;1.63;;
4939;SDS011;2485;49.326;7.214;2023-03-23T15:37:05;2.60;;;1.63;;
4939;SDS011;2485;49.326;7.214;2023-03-23T15:40:13;2.27;;;1.60;;
4939;SDS011;2485;49.326;7.214;2023-03-23T15:43:36;3.60;;;1.50;;
4939;SDS011;2485;49.326;7.214;2023-03-23T15:49:10;2.93;;;1.40;;
4939;SDS011;2485;49.326;7.214;2023-03-23T15:51:59;2.90;;;1.43;;
4939;SDS011;2485;49.326;7.214;2023-03-23T15:55:00;1.37;;;1.27;;
4939;SDS011;2485;49.326;7.214;2023-03-23T15:58:08;4.13;;;1.50;;
4939;SDS011;2485;49.326;7.214;2023-03-23T16:00:55;2.40;;;1.90;;
4939;SDS011;2485;49.326;7.214;2023-03-23T16:03:40;4.70;;;1.70;;
4939;SDS011;2485;49.326;7.214;2023-03-23T16:06:43;2.40;;;1.70;;
4939;SDS011;2485;49.326;7.214;2023-03-23T16:09:22;4.03;;;2.30;;
4939;SDS011;2485;49.326;7.214;2023-03-23T16:14:48;1.87;;;1.77;;
4939;SDS011;2485;49.326;7.214;2023-03-23T16:17:30;2.07;;;1.80;;
4939;SDS011;2485;49.326;7.214;2023-03-23T16:23:02;2.63;;;1.70;;
4939;SDS011;2485;49.326;7.214;2023-03-23T16:26:03;5.23;;;2.00;;
4939;SDS011;2485;49.326;7.214;2023-03-23T16:28:33;2.10;;;1.73;;
4939;SDS011;2485;49.326;7.214;2023-03-23T16:31:11;1.97;;;1.67;;
4939;SDS011;2485;49.326;7.214;2023-03-23T16:33:48;3.50;;;2.20;;
4939;SDS011;2485;49.326;7.214;2023-03-23T16:36:39;2.17;;;1.60;;
4939;SDS011;2485;49.326;7.214;2023-03-23T16:55:28;1.83;;;1.67;;
4939;SDS011;2485;49.326;7.214;2023-03-23T17:04:49;2.43;;;2.23;;
4939;SDS011;2485;49.326;7.214;2023-03-23T17:07:39;3.73;;;2.23;;
4939;SDS011;2485;49.326;7.214;2023-03-23T17:10:23;2.97;;;2.67;;
4939;SDS011;2485;49.326;7.214;2023-03-23T17:15:55;6.77;;;2.33;;
4939;SDS011;2485;49.326;7.214;2023-03-23T17:18:30;3.30;;;2.83;;
4939;SDS011;2485;49.326;7.214;2023-03-23T17:27:03;3.73;;;2.80;;
4939;SDS011;2485;49.326;7.214;2023-03-23T17:29:32;3.70;;;3.00;;
4939;SDS011;2485;49.326;7.214;2023-03-23T17:32:18;5.20;;;2.80;;
4939;SDS011;2485;49.326;7.214;2023-03-23T17:35:04;5.90;;;3.70;;
4939;SDS011;2485;49.326;7.214;2023-03-23T17:37:41;5.60;;;3.30;;
4939;SDS011;2485;49.326;7.214;2023-03-23T17:43:18;4.90;;;3.80;;
4939;SDS011;2485;49.326;7.214;2023-03-23T17:48:52;7.57;;;5.73;;
4939;SDS011;2485;49.326;7.214;2023-03-23T17:54:34;8.70;;;6.60;;
4939;SDS011;2485;49.326;7.214;2023-03-23T17:57:15;8.50;;;5.17;;
4939;SDS011;2485;49.326;7.214;2023-03-23T18:00:14;8.77;;;6.27;;
4939;SDS011;2485;49.326;7.214;2023-03-23T18:06:28;8.17;;;5.50;;
4939;SDS011;2485;49.326;7.214;2023-03-23T18:09:08;6.80;;;5.03;;
4939;SDS011;2485;49.326;7.214;2023-03-23T18:17:48;10.90;;;6.43;;
4939;SDS011;2485;49.326;7.214;2023-03-23T18:54:26;10.63;;;7.20;;
4939;SDS011;2485;49.326;7.214;2023-03-23T18:57:08;10.40;;;7.60;;
4939;SDS011;2485;49.326;7.214;2023-03-23T18:59:35;10.80;;;8.37;;
4939;SDS011;2485;49.326;7.214;2023-03-23T19:08:47;11.90;;;8.23;;
4939;SDS011;2485;49.326;7.214;2023-03-23T19:11:21;11.60;;;8.10;;
4939;SDS011;2485;49.326;7.214;2023-03-23T19:17:13;11.60;;;7.83;;
4939;SDS011;2485;49.326;7.214;2023-03-23T19:20:00;13.00;;;9.37;;
4939;SDS011;2485;49.326;7.214;2023-03-23T19:25:35;11.30;;;7.73;;
4939;SDS011;2485;49.326;7.214;2023-03-23T19:28:18;11.53;;;7.53;;
4939;SDS011;2485;49.326;7.214;2023-03-23T19:31:04;13.17;;;8.10;;
4939;SDS011;2485;49.326;7.214;2023-03-23T19:33:37;12.47;;;7.90;;
4939;SDS011;2485;49.326;7.214;2023-03-23T19:36:05;13.67;;;9.13;;
4939;SDS011;2485;49.326;7.214;2023-03-23T19:41:33;10.60;;;8.40;;
4939;SDS011;2485;49.326;7.214;2023-03-23T19:44:16;10.03;;;7.90;;
4939;SDS011;2485;49.326;7.214;2023-03-23T19:46:55;10.57;;;8.00;;
4939;SDS011;2485;49.326;7.214;2023-03-23T19:49:21;11.30;;;7.40;;
4939;SDS011;2485;49.326;7.214;2023-03-23T19:51:50;13.37;;;8.57;;
4939;SDS011;2485;49.326;7.214;2023-03-23T19:54:17;9.47;;;7.40;;
4939;SDS011;2485;49.326;7.214;2023-03-23T19:56:53;11.90;;;8.13;;
4939;SDS011;2485;49.326;7.214;2023-03-23T20:11:25;10.50;;;7.50;;
4939;SDS011;2485;49.326;7.214;2023-03-23T20:13:55;12.80;;;7.73;;
4939;SDS011;2485;49.326;7.214;2023-03-23T20:19:10;12.87;;;8.03;;
4939;SDS011;2485;49.326;7.214;2023-03-23T20:21:42;12.33;;;7.40;;
4939;SDS011;2485;49.326;7.214;2023-03-23T20:24:13;18.97;;;8.47;;
4939;SDS011;2485;49.326;7.214;2023-03-23T20:29:33;11.67;;;8.30;;
4939;SDS011;2485;49.326;7.214;2023-03-23T20:32:11;12.70;;;8.47;;
4939;SDS011;2485;49.326;7.214;2023-03-23T20:34:56;12.13;;;7.70;;
4939;SDS011;2485;49.326;7.214;2023-03-23T20:37:51;13.50;;;9.27;;
4939;SDS011;2485;49.326;7.214;2023-03-23T20:40:37;12.27;;;8.00;;
4939;SDS011;2485;49.326;7.214;2023-03-23T20:43:13;10.50;;;7.97;;
4939;SDS011;2485;49.326;7.214;2023-03-23T20:55:35;10.40;;;7.10;;
4939;SDS011;2485;49.326;7.214;2023-03-23T20:58:14;11.40;;;7.00;;
4939;SDS011;2485;49.326;7.214;2023-03-23T21:01:05;8.10;;;6.30;;
4939;SDS011;2485;49.326;7.214;2023-03-23T21:03:52;8.00;;;5.90;;
4939;SDS011;2485;49.326;7.214;2023-03-23T21:09:24;9.43;;;6.70;;
4939;SDS011;2485;49.326;7.214;2023-03-23T21:17:54;9.40;;;6.50;;
4939;SDS011;2485;49.326;7.214;2023-03-23T21:20:30;7.80;;;6.27;;
4939;SDS011;2485;49.326;7.214;2023-03-23T21:23:09;10.40;;;6.90;;
4939;SDS011;2485;49.326;7.214;2023-03-23T21:25:57;12.27;;;7.10;;
4939;SDS011;2485;49.326;7.214;2023-03-23T21:28:25;7.90;;;6.40;;
4939;SDS011;2485;49.326;7.214;2023-03-23T21:43:45;8.57;;;6.40;;
4939;SDS011;2485;49.326;7.214;2023-03-23T21:46:18;11.30;;;7.13;;
4939;SDS011;2485;49.326;7.214;2023-03-23T21:49:03;9.80;;;6.80;;
4939;SDS011;2485;49.326;7.214;2023-03-23T21:51:38;9.53;;;7.37;;
4939;SDS011;2485;49.326;7.214;2023-03-23T21:54:12;17.43;;;7.83;;
4939;SDS011;2485;49.326;7.214;2023-03-23T21:56:55;9.40;;;7.30;;
4939;SDS011;2485;49.326;7.214;2023-03-23T21:59:40;12.87;;;7.93;;
4939;SDS011;2485;49.326;7.214;2023-03-23T22:02:36;10.63;;;7.20;;
4939;SDS011;2485;49.326;7.214;2023-03-23T22:05:08;13.20;;;9.10;;
4939;SDS011;2485;49.326;7.214;2023-03-23T22:07:45;17.10;;;8.60;;
4939;SDS011;2485;49.326;7.214;2023-03-23T22:10:18;12.00;;;7.73;;
4939;SDS011;2485;49.326;7.214;2023-03-23T22:12:59;12.63;;;8.27;;
4939;SDS011;2485;49.326;7.214;2023-03-23T22:15:34;11.00;;;7.33;;
4939;SDS011;2485;49.326;7.214;2023-03-23T22:21:32;10.40;;;6.87;;
4939;SDS011;2485;49.326;7.214;2023-03-23T22:24:08;10.53;;;7.47;;
4939;SDS011;2485;49.326;7.214;2023-03-23T22:26:47;12.47;;;6.93;;
4939;SDS011;2485;49.326;7.214;2023-03-23T22:29:36;9.83;;;7.60;;
4939;SDS011;2485;49.326;7.214;2023-03-23T22:32:18;11.10;;;8.10;;
4939;SDS011;2485;49.326;7.214;2023-03-23T22:35:00;10.43;;;7.00;;
4939;SDS011;2485;49.326;7.214;2023-03-23T22:37:42;12.30;;;7.63;;
4939;SDS011;2485;49.326;7.214;2023-03-23T22:40:21;10.70;;;7.00;;
4939;SDS011;2485;49.326;7.214;2023-03-23T22:43:20;10.97;;;7.57;;
4939;SDS011;2485;49.326;7.214;2023-03-23T22:46:04;10.37;;;7.70;;
4939;SDS011;2485;49.326;7.214;2023-03-23T22:48:41;10.00;;;7.30;;
4939;SDS011;2485;49.326;7.214;2023-03-23T22:54:16;9.73;;;6.87;;
4939;SDS011;2485;49.326;7.214;2023-03-23T22:56:45;11.27;;;7.97;;
4939;SDS011;2485;49.326;7.214;2023-03-23T22:59:15;12.77;;;8.00;;
4939;SDS011;2485;49.326;7.214;2023-03-23T23:01:43;12.03;;;7.20;;
4939;SDS011;2485;49.326;7.214;2023-03-23T23:04:24;8.80;;;7.17;;
4939;SDS011;2485;49.326;7.214;2023-03-23T23:06:58;9.17;;;6.63;;
4939;SDS011;2485;49.326;7.214;2023-03-23T23:09:39;11.47;;;7.07;;
4939;SDS011;2485;49.326;7.214;2023-03-23T23:12:13;10.03;;;7.57;;
4939;SDS011;2485;49.326;7.214;2023-03-23T23:14:51;14.50;;;7.60;;
4939;SDS011;2485;49.326;7.214;2023-03-23T23:17:24;12.27;;;7.67;;
4939;SDS011;2485;49.326;7.214;2023-03-23T23:26:11;10.80;;;7.67;;
4939;SDS011;2485;49.326;7.214;2023-03-23T23:32:10;11.87;;;7.70;;
4939;SDS011;2485;49.326;7.214;2023-03-23T23:39:09;10.97;;;6.30;;
4939;SDS011;2485;49.326;7.214;2023-03-23T23:44:40;11.27;;;7.00;;
4939;SDS011;2485;49.326;7.214;2023-03-23T23:47:09;9.23;;;7.20;;
4939;SDS011;2485;49.326;7.214;2023-03-23T23:49:39;8.80;;;6.60;;
4939;SDS011;2485;49.326;7.214;2023-03-23T23:52:14;10.30;;;6.97;;
4939;SDS011;2485;49.326;7.214;2023-03-23T23:54:47;10.23;;;7.30;;
4939;SDS011;2485;49.326;7.214;2023-03-23T23:57:35;11.40;;;6.87;;
